Time;durP1;ratioP1;P1;durP2;ratioP2;P2;SDS_P1;SDS_P2;PMS_P1;PMS_P2;Temp;Humidity;BMP_temperature;BMP_pressure;BME280_temperature;BME280_humidity;BME280_pressure;Samples;Min_cycle;Max_cycle;Signal;HPM_P1;HPM_P2
2022/07/19 00:01:14;;;;;;;2.50;2.30;;;-40.00;97.70;;;;;;5035863;28;20451;-73
2022/07/19 00:03:40;;;;;;;2.40;2.20;;;-40.00;98.00;;;;;;5035933;28;20177;-70
2022/07/19 00:06:05;;;;;;;3.80;2.27;;;-40.00;97.80;;;;;;5035731;28;20185;-68
2022/07/19 00:08:31;;;;;;;2.50;2.10;;;-40.00;97.80;;;;;;5024933;28;20192;-69
2022/07/19 00:10:57;;;;;;;3.30;2.50;;;-40.00;98.00;;;;;;5035818;28;20252;-69
2022/07/19 00:13:23;;;;;;;2.00;1.90;;;-40.00;98.10;;;;;;5035726;28;20168;-68
2022/07/19 00:15:49;;;;;;;6.07;2.77;;;-40.00;98.80;;;;;;5035831;28;20173;-74
2022/07/19 00:18:15;;;;;;;3.37;2.03;;;-40.00;98.60;;;;;;5034779;28;20173;-69
2022/07/19 00:20:41;;;;;;;3.40;3.13;;;-40.00;98.80;;;;;;5035490;28;20208;-70
2022/07/19 00:23:07;;;;;;;2.83;2.50;;;-40.00;98.80;;;;;;5035537;28;20204;-72
2022/07/19 00:25:32;;;;;;;2.53;2.33;;;-40.00;99.10;;;;;;5034465;28;20498;-67
2022/07/19 00:27:58;;;;;;;2.47;2.23;;;-40.00;99.20;;;;;;5035558;28;20172;-73
2022/07/19 00:30:24;;;;;;;15.37;3.63;;;-40.00;99.40;;;;;;5025732;28;20452;-74
2022/07/19 00:32:49;;;;;;;3.77;2.47;;;-40.00;99.60;;;;;;5025953;28;20177;-72
2022/07/19 00:35:15;;;;;;;2.70;2.50;;;-40.00;99.80;;;;;;5035304;28;20179;-72
2022/07/19 00:37:41;;;;;;;3.20;2.40;;;-40.00;99.90;;;;;;5026257;28;20187;-70
2022/07/19 00:40:08;;;;;;;2.47;2.27;;;-40.00;99.90;;;;;;5025641;28;20192;-69
2022/07/19 00:42:33;;;;;;;6.83;2.43;;;-40.00;99.90;;;;;;5024355;28;20236;-72
2022/07/19 00:44:59;;;;;;;2.43;2.23;;;-40.00;99.90;;;;;;5034288;28;20664;-71
2022/07/19 00:47:25;;;;;;;3.17;2.60;;;-40.00;99.90;;;;;;5034904;28;20227;-69
2022/07/19 00:49:51;;;;;;;2.33;2.23;;;-40.00;99.90;;;;;;5035493;28;20180;-69
2022/07/19 00:52:19;;;;;;;3.50;1.90;;;-40.00;99.90;;;;;;5035130;28;20164;-70
2022/07/19 00:54:46;;;;;;;2.17;2.07;;;-40.00;99.90;;;;;;5035314;28;20172;-69
2022/07/19 00:57:14;;;;;;;5.43;2.27;;;-40.00;99.90;;;;;;5035228;28;20172;-70
2022/07/19 00:59:43;;;;;;;3.27;2.27;;;-40.00;99.90;;;;;;5032652;28;20176;-70
2022/07/19 01:02:11;;;;;;;3.63;2.63;;;-40.00;99.90;;;;;;5034862;28;20231;-69
2022/07/19 01:04:38;;;;;;;2.90;2.70;;;-40.00;99.90;;;;;;5034834;28;20204;-70
2022/07/19 01:07:03;;;;;;;2.17;1.93;;;-40.00;99.90;;;;;;5025914;28;20169;-68
2022/07/19 01:09:29;;;;;;;6.50;2.70;;;-40.00;99.90;;;;;;5025375;28;20172;-69
2022/07/19 01:11:56;;;;;;;2.47;2.37;;;-40.00;99.90;;;;;;5035091;28;20169;-68
2022/07/19 01:14:22;;;;;;;2.17;2.07;;;-40.00;99.90;;;;;;5032503;28;20173;-68
2022/07/19 01:16:48;;;;;;;2.57;2.43;;;-40.00;99.90;;;;;;5034809;28;20181;-69
2022/07/19 01:19:14;;;;;;;2.83;2.33;;;-40.00;99.90;;;;;;5023095;28;20208;-68
2022/07/19 01:21:40;;;;;;;2.83;2.63;;;-40.00;99.90;;;;;;5026042;28;20184;-69
2022/07/19 01:24:06;;;;;;;3.73;2.37;;;-40.00;99.90;;;;;;5024810;28;20558;-69
2022/07/19 01:26:32;;;;;;;3.20;2.17;;;-40.00;99.90;;;;;;5033870;28;20196;-69
2022/07/19 01:28:57;;;;;;;2.40;2.30;;;-40.00;99.90;;;;;;5035938;28;20172;-68
2022/07/19 01:31:23;;;;;;;4.70;2.33;;;-40.00;99.90;;;;;;5038511;28;20233;-68
2022/07/19 01:33:49;;;;;;;3.13;2.73;;;-40.00;99.90;;;;;;5038680;28;20177;-68
2022/07/19 01:36:14;;;;;;;3.27;2.73;;;-40.00;99.90;;;;;;5038752;28;20185;-68
2022/07/19 01:38:40;;;;;;;2.27;2.10;;;-40.00;99.90;;;;;;5027476;28;20177;-68
2022/07/19 01:41:07;;;;;;;3.10;2.90;;;-40.00;99.90;;;;;;5029262;28;20576;-68
2022/07/19 01:43:33;;;;;;;4.20;2.93;;;-40.00;99.90;;;;;;5028966;28;20529;-68
2022/07/19 01:45:59;;;;;;;6.00;3.50;;;-40.00;99.90;;;;;;5027228;28;20208;-73
2022/07/19 01:48:25;;;;;;;2.60;2.47;;;-40.00;99.90;;;;;;5038279;28;20519;-70
2022/07/19 01:50:51;;;;;;;2.50;2.30;;;-40.00;99.90;;;;;;5038503;28;20195;-73
2022/07/19 01:53:16;;;;;;;2.33;2.23;;;-40.00;99.90;;;;;;5038495;28;20173;-73
2022/07/19 01:55:42;;;;;;;2.30;2.10;;;-40.00;99.90;;;;;;5038304;28;20459;-71
2022/07/19 01:58:08;;;;;;;2.43;2.33;;;-40.00;99.90;;;;;;5037414;28;20176;-71
2022/07/19 02:00:34;;;;;;;3.00;2.83;;;-40.00;99.90;;;;;;5027451;28;20584;-71
2022/07/19 02:03:02;;;;;;;3.80;3.10;;;-40.00;99.90;;;;;;5028357;28;20184;-69
2022/07/19 02:05:28;;;;;;;4.40;2.10;;;-40.00;99.90;;;;;;5027875;28;20224;-73
2022/07/19 02:07:54;;;;;;;2.70;2.50;;;-40.00;99.90;;;;;;5028119;28;20207;-69
2022/07/19 02:10:20;;;;;;;2.53;2.33;;;-40.00;99.90;;;;;;5029065;28;20180;-73
2022/07/19 02:12:46;;;;;;;2.80;2.10;;;-40.00;99.90;;;;;;5027276;28;20177;-74
2022/07/19 02:15:11;;;;;;;2.10;2.00;;;-40.00;99.90;;;;;;5037683;28;20177;-72
2022/07/19 02:17:37;;;;;;;3.30;2.17;;;-40.00;99.90;;;;;;5038109;28;20525;-71
2022/07/19 02:20:05;;;;;;;2.10;2.00;;;-40.00;99.90;;;;;;5037924;28;20185;-70
2022/07/19 02:22:31;;;;;;;3.53;2.07;;;-40.00;99.90;;;;;;5028248;28;20473;-71
2022/07/19 02:24:57;;;;;;;2.13;2.03;;;-40.00;99.90;;;;;;5028246;28;20189;-70
2022/07/19 02:27:22;;;;;;;9.10;2.57;;;-40.00;99.90;;;;;;5026817;28;20700;-69
2022/07/19 02:29:48;;;;;;;2.33;2.17;;;-40.00;99.90;;;;;;5037484;28;20169;-71
2022/07/19 02:32:15;;;;;;;4.20;3.10;;;-40.00;99.90;;;;;;5037742;28;20484;-69
2022/07/19 02:34:41;;;;;;;2.80;2.60;;;-40.00;99.90;;;;;;5037415;28;20192;-69
2022/07/19 02:37:07;;;;;;;2.63;2.37;;;-40.00;99.90;;;;;;5028689;28;20179;-70
2022/07/19 02:39:33;;;;;;;2.43;2.23;;;-40.00;99.90;;;;;;5025832;28;20226;-70
2022/07/19 02:41:59;;;;;;;2.30;2.20;;;-40.00;99.90;;;;;;5027016;28;20224;-69
2022/07/19 02:44:25;;;;;;;2.30;2.07;;;-40.00;99.90;;;;;;5027915;28;20207;-69
2022/07/19 02:46:51;;;;;;;2.33;2.13;;;-40.00;99.90;;;;;;5026015;28;20589;-73
2022/07/19 02:49:16;;;;;;;3.07;2.43;;;-40.00;99.90;;;;;;5037370;28;20196;-70
2022/07/19 02:51:42;;;;;;;2.60;2.40;;;-40.00;99.90;;;;;;5037180;28;20217;-69
2022/07/19 02:54:08;;;;;;;3.50;2.83;;;-40.00;99.90;;;;;;5037324;28;20256;-70
2022/07/19 02:56:36;;;;;;;4.33;2.00;;;-40.00;99.90;;;;;;5037143;28;20169;-70
2022/07/19 02:59:03;;;;;;;4.13;2.50;;;-40.00;99.90;;;;;;5036872;28;20171;-72
2022/07/19 03:01:29;;;;;;;2.33;2.03;;;-40.00;99.90;;;;;;5034489;28;20529;-69
2022/07/19 03:03:56;;;;;;;3.03;2.70;;;-40.00;99.90;;;;;;5037154;28;20511;-75
2022/07/19 03:06:22;;;;;;;3.23;2.43;;;-40.00;99.90;;;;;;5036954;28;20204;-71
2022/07/19 03:08:48;;;;;;;2.10;2.00;;;-40.00;99.90;;;;;;5034312;28;20219;-69
2022/07/19 03:11:14;;;;;;;3.00;2.30;;;-40.00;99.90;;;;;;5036779;28;20165;-69
2022/07/19 03:13:40;;;;;;;2.63;2.43;;;-40.00;99.90;;;;;;5036666;28;20177;-69
2022/07/19 03:16:06;;;;;;;2.20;2.00;;;-40.00;99.90;;;;;;5036854;28;20616;-71
2022/07/19 03:18:32;;;;;;;2.53;2.33;;;-40.00;99.90;;;;;;5036681;28;20251;-71
2022/07/19 03:20:58;;;;;;;4.37;2.80;;;-40.00;99.90;;;;;;5026739;28;20257;-73
2022/07/19 03:23:26;;;;;;;2.10;1.97;;;-40.00;99.90;;;;;;5027771;28;20200;-70
2022/07/19 03:25:52;;;;;;;2.30;2.10;;;-40.00;99.90;;;;;;5034170;28;20192;-72
2022/07/19 03:28:18;;;;;;;2.00;1.90;;;-40.00;99.90;;;;;;5036356;28;20568;-72
2022/07/19 03:30:44;;;;;;;5.03;2.73;;;-40.00;99.90;;;;;;5036427;28;20548;-73
2022/07/19 03:33:10;;;;;;;3.67;2.37;;;-40.00;99.90;;;;;;5036545;28;20631;-71
2022/07/19 03:35:36;;;;;;;2.83;2.27;;;-40.00;99.90;;;;;;5036247;28;20197;-72
2022/07/19 03:38:02;;;;;;;3.07;2.10;;;-40.00;99.90;;;;;;5026187;28;20200;-70
2022/07/19 03:40:28;;;;;;;2.67;2.50;;;-40.00;99.90;;;;;;5027331;28;20191;-70
2022/07/19 03:42:53;;;;;;;1.87;1.77;;;-40.00;99.90;;;;;;5025484;28;20170;-71
2022/07/19 03:45:19;;;;;;;4.30;2.13;;;-40.00;99.90;;;;;;5036253;28;20215;-69
2022/07/19 03:47:46;;;;;;;2.70;2.50;;;-40.00;99.90;;;;;;5036061;28;20209;-72
2022/07/19 03:50:12;;;;;;;2.57;2.20;;;-40.00;99.90;;;;;;5057403;28;20188;-70
2022/07/19 03:52:37;;;;;;;2.63;2.43;;;-40.00;99.90;;;;;;5035196;28;20180;-70
2022/07/19 03:55:03;;;;;;;8.70;3.07;;;-40.00;99.90;;;;;;5036230;28;20181;-71
2022/07/19 03:57:29;;;;;;;3.23;2.40;;;-40.00;99.90;;;;;;5024627;28;20177;-70
2022/07/19 03:59:55;;;;;;;1.90;1.80;;;-40.00;99.90;;;;;;5026722;28;20172;-69
2022/07/19 04:02:21;;;;;;;5.10;2.40;;;-40.00;99.90;;;;;;5026182;28;20177;-69
2022/07/19 04:04:47;;;;;;;2.93;2.57;;;-40.00;99.90;;;;;;5035926;28;20204;-68
2022/07/19 04:07:12;;;;;;;2.53;2.33;;;-40.00;99.90;;;;;;5033191;28;20173;-69
2022/07/19 04:09:38;;;;;;;2.10;2.00;;;-40.00;99.90;;;;;;5035748;28;20177;-68
2022/07/19 04:12:04;;;;;;;6.20;2.90;;;-40.00;99.90;;;;;;5035501;28;20266;-68
2022/07/19 04:14:30;;;;;;;2.23;2.03;;;-40.00;99.90;;;;;;5035812;28;20216;-68
2022/07/19 04:16:55;;;;;;;6.83;2.57;;;-40.00;99.90;;;;;;5035741;28;20188;-68
2022/07/19 04:19:21;;;;;;;2.97;2.63;;;-40.00;99.90;;;;;;5025789;28;20208;-69
2022/07/19 04:21:47;;;;;;;5.17;3.07;;;-40.00;99.90;;;;;;5026423;28;20181;-68
2022/07/19 04:24:12;;;;;;;3.10;2.47;;;-40.00;99.90;;;;;;5024698;28;20178;-69
2022/07/19 04:26:38;;;;;;;2.70;2.50;;;-40.00;99.90;;;;;;5035193;28;20211;-68
2022/07/19 04:29:04;;;;;;;2.27;2.07;;;-40.00;99.90;;;;;;5035686;28;20176;-68
2022/07/19 04:31:30;;;;;;;4.87;1.97;;;-40.00;99.90;;;;;;5024672;28;20528;-68
2022/07/19 04:33:55;;;;;;;4.00;2.20;;;-40.00;99.90;;;;;;5035385;28;20180;-68
2022/07/19 04:36:21;;;;;;;3.37;3.03;;;-40.00;99.90;;;;;;5035531;28;20243;-67
2022/07/19 04:38:47;;;;;;;6.70;2.80;;;-40.00;99.90;;;;;;5024623;28;20180;-68
2022/07/19 04:41:13;;;;;;;2.67;2.47;;;-40.00;99.90;;;;;;5026391;28;20177;-69
2022/07/19 04:43:39;;;;;;;16.03;3.93;;;-40.00;99.90;;;;;;5025047;28;20248;-68
2022/07/19 04:46:05;;;;;;;2.77;2.57;;;-40.00;99.90;;;;;;5025135;28;20204;-69
2022/07/19 04:48:30;;;;;;;3.60;2.83;;;-40.00;99.90;;;;;;5026345;28;20191;-71
2022/07/19 04:50:56;;;;;;;4.60;2.53;;;-40.00;99.90;;;;;;5024505;28;20625;-74
2022/07/19 04:53:22;;;;;;;3.40;1.97;;;-40.00;99.90;;;;;;5025496;28;20203;-69
2022/07/19 04:55:48;;;;;;;2.87;2.60;;;-40.00;99.90;;;;;;5025720;28;20220;-70
2022/07/19 04:58:13;;;;;;;2.80;2.10;;;-40.00;99.90;;;;;;5035131;28;20234;-69
2022/07/19 05:00:39;;;;;;;3.20;2.37;;;-40.00;99.90;;;;;;5025851;28;20184;-70
2022/07/19 05:03:05;;;;;;;3.90;2.43;;;-40.00;99.90;;;;;;5026750;28;20178;-71
2022/07/19 05:05:31;;;;;;;3.53;2.50;;;-40.00;99.90;;;;;;5039379;28;20279;-74
2022/07/19 05:07:57;;;;;;;4.30;3.17;;;-40.00;99.90;;;;;;5036507;28;20176;-68
2022/07/19 05:10:23;;;;;;;5.53;3.03;;;-40.00;99.90;;;;;;5038942;28;20566;-69
2022/07/19 05:12:49;;;;;;;5.27;3.40;;;-40.00;99.90;;;;;;5039115;28;20632;-70
2022/07/19 05:15:14;;;;;;;3.23;2.03;;;-40.00;99.90;;;;;;5039135;28;20175;-68
2022/07/19 05:17:40;;;;;;;4.20;2.53;;;-40.00;99.90;;;;;;5038918;28;20257;-71
2022/07/19 05:20:07;;;;;;;3.17;2.50;;;-40.00;99.90;;;;;;5028840;28;20203;-69
2022/07/19 05:22:33;;;;;;;4.77;2.90;;;-40.00;99.90;;;;;;5030181;28;21512;-69
2022/07/19 05:24:59;;;;;;;8.60;4.17;;;-40.00;99.90;;;;;;5035967;28;20275;-68
2022/07/19 05:27:25;;;;;;;6.43;2.47;;;-40.00;99.90;;;;;;5038984;28;20176;-70
2022/07/19 05:29:50;;;;;;;6.77;2.60;;;-40.00;99.90;;;;;;5028090;28;20264;-70
2022/07/19 05:32:16;;;;;;;5.77;2.43;;;-40.00;99.90;;;;;;5029196;28;20240;-70
2022/07/19 05:34:42;;;;;;;6.20;2.83;;;-40.00;99.90;;;;;;5028969;28;20204;-73
2022/07/19 05:37:08;;;;;;;6.17;2.23;;;-40.00;99.90;;;;;;5027419;28;20211;-70
2022/07/19 05:39:34;;;;;;;4.70;2.83;;;-40.00;99.90;;;;;;5037974;28;20200;-71
2022/07/19 05:42:00;;;;;;;4.57;2.77;;;-40.00;99.90;;;;;;5038676;28;20200;-69
2022/07/19 05:44:25;;;;;;;5.87;3.30;;;-40.00;99.90;;;;;;5037250;28;20196;-72
2022/07/19 05:46:51;;;;;;;13.57;3.20;;;-40.00;99.90;;;;;;5038074;28;20177;-73
2022/07/19 05:49:17;;;;;;;5.23;3.37;;;-40.00;99.90;;;;;;5037445;28;20200;-75
2022/07/19 05:51:43;;;;;;;7.13;2.77;;;-40.00;99.90;;;;;;5036686;28;20184;-76
2022/07/19 05:54:09;;;;;;;4.87;2.93;;;-40.00;99.90;;;;;;5038255;28;20169;-72
2022/07/19 05:56:35;;;;;;;4.60;2.63;;;-40.00;99.90;;;;;;5034183;28;20184;-73
2022/07/19 05:59:04;;;;;;;12.93;4.27;;;-40.00;99.90;;;;;;5031907;28;20489;-72
2022/07/19 06:01:30;;;;;;;4.50;3.23;;;-40.00;99.90;;;;;;5027266;28;20324;-73
2022/07/19 06:03:58;;;;;;;13.27;3.40;;;-40.00;99.90;;;;;;5029392;28;20264;-75
2022/07/19 06:06:28;;;;;;;11.40;3.40;;;-40.00;99.90;;;;;;5026886;28;20213;-72
2022/07/19 06:08:54;;;;;;;8.00;3.07;;;-40.00;99.90;;;;;;5026887;28;20607;-71
2022/07/19 06:11:20;;;;;;;4.73;2.57;;;-40.00;99.00;;;;;;5029224;28;20169;-72
2022/07/19 06:13:47;;;;;;;3.67;3.23;;;-40.00;98.60;;;;;;5025716;28;20223;-70
2022/07/19 06:16:13;;;;;;;6.10;2.80;;;-40.00;98.10;;;;;;5025693;28;20176;-70
2022/07/19 06:18:40;;;;;;;4.23;2.50;;;-40.00;96.90;;;;;;5028401;28;20180;-70
2022/07/19 06:21:15;;;;;;;4.83;3.10;;;-40.00;96.60;;;;;;5026946;28;20491;-67
2022/07/19 06:23:42;;;;;;;4.83;3.50;;;-40.00;97.10;;;;;;5037267;28;20176;-68
2022/07/19 06:26:09;;;;;;;7.47;2.90;;;-40.00;96.10;;;;;;5037612;28;20196;-70
2022/07/19 06:28:36;;;;;;;3.80;2.40;;;-40.00;93.20;;;;;;5037702;28;20173;-70
2022/07/19 06:31:02;;;;;;;3.23;2.23;;;-40.00;93.80;;;;;;5037335;28;20168;-72
2022/07/19 06:33:28;;;;;;;2.70;1.97;;;-40.00;92.10;;;;;;5036528;28;20175;-73
2022/07/19 06:35:53;;;;;;;3.93;1.97;;;-40.00;90.60;;;;;;5037220;28;20232;-70
2022/07/19 06:38:19;;;;;;;6.13;2.57;;;-40.00;91.10;;;;;;5037470;28;20180;-69
2022/07/19 06:40:45;;;;;;;4.97;2.53;;;-40.00;89.30;;;;;;5028183;28;20271;-76
2022/07/19 06:43:11;;;;;;;4.63;2.40;;;-40.00;88.60;;;;;;5026683;28;20173;-69
2022/07/19 06:45:38;;;;;;;6.53;2.30;;;-40.00;86.60;;;;;;5026420;28;20535;-71
2022/07/19 06:48:04;;;;;;;2.20;2.10;;;-40.00;81.70;;;;;;5034761;28;20176;-70
2022/07/19 06:50:30;;;;;;;3.27;2.63;;;-40.00;80.60;;;;;;5031473;28;20238;-70
2022/07/19 06:52:56;;;;;;;11.90;4.50;;;-40.00;80.10;;;;;;5029838;28;20176;-76
2022/07/19 06:55:22;;;;;;;2.80;2.20;;;-40.00;80.20;;;;;;5036082;28;20574;-71
2022/07/19 06:57:48;;;;;;;3.07;2.40;;;-40.00;79.80;;;;;;5035930;28;20181;-71
2022/07/19 07:00:14;;;;;;;7.53;2.77;;;-40.00;79.80;;;;;;5036456;28;20211;-68
2022/07/19 07:02:41;;;;;;;2.43;2.23;;;-40.00;78.00;;;;;;5036178;28;20263;-71
2022/07/19 07:05:08;;;;;;;2.53;1.87;;;-40.00;77.40;;;;;;5036622;28;20196;-72
2022/07/19 07:07:34;;;;;;;3.53;2.60;;;-40.00;77.50;;;;;;5026473;28;20184;-71
2022/07/19 07:10:01;;;;;;;6.57;3.33;;;-40.00;76.70;;;;;;5030719;28;20200;-76
2022/07/19 07:12:28;;;;;;;3.60;2.70;;;-40.00;76.90;;;;;;5030026;28;20176;-69
2022/07/19 07:14:57;;;;;;;6.73;3.07;;;-40.00;74.10;;;;;;5035414;28;20267;-69
2022/07/19 07:17:23;;;;;;;4.73;2.67;;;-40.00;70.20;;;;;;5036418;28;20271;-69
2022/07/19 07:19:49;;;;;;;3.87;3.07;;;-40.00;69.70;;;;;;5030913;28;20745;-69
2022/07/19 07:22:15;;;;;;;2.17;2.00;;;-40.00;70.70;;;;;;5033776;28;20181;-70
2022/07/19 07:24:40;;;;;;;3.20;2.70;;;-40.00;68.80;;;;;;5036590;28;20224;-69
2022/07/19 07:27:06;;;;;;;3.23;2.30;;;-40.00;68.70;;;;;;5033435;28;20222;-70
2022/07/19 07:29:32;;;;;;;3.13;2.30;;;-40.00;66.40;;;;;;5036239;28;20251;-70
2022/07/19 07:31:58;;;;;;;3.87;1.97;;;-40.00;67.20;;;;;;5034413;28;20675;-70
2022/07/19 07:34:24;;;;;;;2.73;2.20;;;-40.00;67.60;;;;;;5035791;28;20176;-69
2022/07/19 07:36:50;;;;;;;2.77;2.33;;;-40.00;67.20;;;;;;5035955;28;20172;-69
2022/07/19 07:39:15;;;;;;;5.40;2.60;;;-40.00;66.70;;;;;;5035836;28;20192;-69
2022/07/19 07:41:41;;;;;;;4.63;2.40;;;-40.00;65.80;;;;;;5035121;28;20634;-69
2022/07/19 07:44:07;;;;;;;3.20;2.47;;;-40.00;66.50;;;;;;5032867;28;20592;-69
2022/07/19 07:46:33;;;;;;;3.73;2.20;;;-40.00;65.20;;;;;;5034441;28;20247;-69
2022/07/19 07:48:59;;;;;;;2.57;2.37;;;-40.00;64.40;;;;;;5034580;28;20177;-69
2022/07/19 07:51:25;;;;;;;6.50;2.40;;;-40.00;65.30;;;;;;5034497;28;20168;-69
2022/07/19 07:53:51;;;;;;;4.30;2.00;;;-40.00;64.60;;;;;;5035289;28;20177;-70
2022/07/19 07:56:17;;;;;;;5.37;3.07;;;-40.00;64.70;;;;;;5034634;28;20607;-70
2022/07/19 07:58:43;;;;;;;3.83;3.50;;;-40.00;63.10;;;;;;5033389;28;20181;-72
2022/07/19 08:01:09;;;;;;;4.73;2.80;;;-40.00;62.30;;;;;;5031488;28;20169;-70
2022/07/19 08:03:34;;;;;;;6.30;3.30;;;-40.00;62.60;;;;;;5034750;28;20183;-70
2022/07/19 08:06:00;;;;;;;2.17;2.03;;;-40.00;63.50;;;;;;5035425;28;20205;-70
2022/07/19 08:08:26;;;;;;;3.73;2.10;;;-40.00;63.70;;;;;;5034691;28;20259;-69
2022/07/19 08:10:56;;;;;;;3.00;2.53;;;-40.00;62.70;;;;;;5035174;28;20260;-70
2022/07/19 08:13:23;;;;;;;2.97;2.37;;;-40.00;63.00;;;;;;5035216;28;20173;-74
2022/07/19 08:15:49;;;;;;;3.63;2.23;;;-40.00;63.50;;;;;;5035378;28;20229;-70
2022/07/19 08:18:15;;;;;;;5.53;3.00;;;-40.00;61.40;;;;;;5034845;28;20188;-70
2022/07/19 08:20:41;;;;;;;3.17;2.87;;;-40.00;59.40;;;;;;5032210;28;20589;-71
2022/07/19 08:23:07;;;;;;;2.43;2.23;;;-40.00;58.80;;;;;;5034833;28;20224;-71
2022/07/19 08:25:34;;;;;;;2.70;2.47;;;-40.00;58.70;;;;;;5035350;28;20246;-70
2022/07/19 08:28:01;;;;;;;3.70;2.63;;;-40.00;57.80;;;;;;5031770;28;20169;-71
2022/07/19 08:30:27;;;;;;;3.57;2.23;;;-40.00;58.80;;;;;;5034955;28;20177;-71
2022/07/19 08:32:53;;;;;;;3.03;2.17;;;-40.00;58.00;;;;;;5034308;28;20173;-70
2022/07/19 08:35:18;;;;;;;3.57;2.50;;;-40.00;59.00;;;;;;5028539;28;20544;-70
2022/07/19 08:37:44;;;;;;;8.53;3.17;;;-40.00;56.90;;;;;;5034225;28;20181;-71
2022/07/19 08:40:10;;;;;;;6.20;2.50;;;-40.00;57.00;;;;;;5034412;28;20196;-71
2022/07/19 08:42:37;;;;;;;3.13;2.90;;;-40.00;55.20;;;;;;5031234;28;20219;-71
2022/07/19 08:45:07;;;;;;;3.13;2.40;;;-40.00;55.50;;;;;;5033817;28;20262;-71
2022/07/19 08:47:34;;;;;;;2.77;2.40;;;-40.00;54.70;;;;;;5032039;28;20238;-71
2022/07/19 08:50:01;;;;;;;7.33;2.50;;;-40.00;54.10;;;;;;5034197;28;20212;-73
2022/07/19 08:52:27;;;;;;;2.50;2.30;;;-40.00;53.00;;;;;;5033418;28;20319;-70
2022/07/19 08:54:56;;;;;;;5.40;2.00;;;-40.00;53.20;;;;;;5033132;28;20581;-71
2022/07/19 09:00:07;;;;;;;4.53;2.80;;;-40.00;52.60;;;;;;5033875;28;20187;-72
2022/07/19 09:02:33;;;;;;;8.20;2.90;;;-40.00;51.10;;;;;;5031203;28;20179;-70
2022/07/19 09:05:10;;;;;;;3.03;2.83;;;-40.00;51.40;;;;;;5034567;28;20193;-73
2022/07/19 09:07:37;;;;;;;4.03;3.63;;;-40.00;50.80;;;;;;5032271;28;20468;-71
2022/07/19 09:10:23;;;;;;;9.63;6.83;;;-40.00;48.20;;;;;;5029593;28;20536;-70
2022/07/19 09:13:00;;;;;;;10.23;3.90;;;-40.00;48.20;;;;;;5033859;28;20181;-71
2022/07/19 09:15:43;;;;;;;6.73;2.40;;;-40.00;46.90;;;;;;5034241;28;20180;-72
2022/07/19 09:18:26;;;;;;;5.80;2.60;;;-40.00;47.00;;;;;;5033822;28;20176;-71
2022/07/19 09:20:55;;;;;;;10.17;3.37;;;-40.00;46.50;;;;;;5034059;28;20176;-71
2022/07/19 09:23:21;;;;;;;6.20;3.07;;;-40.00;44.00;;;;;;5033124;28;20205;-72
2022/07/19 09:26:05;;;;;;;5.23;2.63;;;-40.00;43.90;;;;;;5034502;28;20196;-73
2022/07/19 09:28:35;;;;;;;4.60;3.43;;;-40.00;44.10;;;;;;5034171;28;20180;-71
2022/07/19 09:31:04;;;;;;;4.03;3.73;;;-40.00;43.00;;;;;;5034130;28;20180;-73
2022/07/19 09:33:32;;;;;;;4.97;3.53;;;-40.00;40.90;;;;;;5034434;28;20173;-74
2022/07/19 09:36:03;;;;;;;4.57;3.47;;;-40.00;41.60;;;;;;5033591;28;20189;-72
2022/07/19 09:38:34;;;;;;;6.40;2.53;;;-40.00;40.80;;;;;;5034163;28;20181;-72
2022/07/19 09:41:16;;;;;;;7.70;3.47;;;-40.00;41.40;;;;;;5031940;28;20185;-71
2022/07/19 09:43:51;;;;;;;5.35;3.05;;;-40.00;40.70;;;;;;5031794;28;20180;-72
2022/07/19 09:46:37;;;;;;;6.80;3.35;;;-40.00;38.70;;;;;;5031656;28;20258;-73
2022/07/19 09:49:14;;;;;;;5.93;2.85;;;-40.00;39.30;;;;;;5032112;28;20181;-71
2022/07/19 09:51:43;;;;;;;4.95;3.95;;;-40.00;36.40;;;;;;5035299;28;20512;-72
2022/07/19 09:54:11;;;;;;;3.95;3.10;;;-40.00;35.90;;;;;;5036656;28;20499;-71
2022/07/19 09:56:39;;;;;;;9.70;2.90;;;-40.00;35.40;;;;;;5035343;28;20173;-71
2022/07/19 09:59:05;;;;;;;3.75;2.92;;;-40.00;36.40;;;;;;5037622;28;20175;-72
2022/07/19 10:01:32;;;;;;;7.70;3.20;;;-40.00;35.20;;;;;;5037749;28;20177;-71
2022/07/19 10:04:08;;;;;;;4.90;2.75;;;-40.00;33.90;;;;;;5036985;28;20248;-72
2022/07/19 10:06:36;;;;;;;4.10;2.97;;;-40.00;34.10;;;;;;5038006;28;20287;-71
2022/07/19 10:09:04;;;;;;;5.55;2.30;;;-40.00;33.60;;;;;;5037720;28;20179;-70
2022/07/19 10:11:31;;;;;;;5.47;3.05;;;-40.00;33.90;;;;;;5037298;28;20179;-71
2022/07/19 10:13:57;;;;;;;8.48;3.17;;;-40.00;31.80;;;;;;5037187;28;20184;-72
2022/07/19 10:16:48;;;;;;;2.83;2.60;;;-40.00;33.40;;;;;;5035143;28;20235;-71
2022/07/19 10:19:35;;;;;;;5.20;2.80;;;-40.00;32.60;;;;;;5037223;28;20181;-71
2022/07/19 10:22:03;;;;;;;6.05;3.10;;;-40.00;31.00;;;;;;5033922;28;20178;-73
2022/07/19 10:24:51;;;;;;;2.90;2.70;;;-40.00;31.40;;;;;;5037075;28;20184;-73
2022/07/19 10:27:39;;;;;;;3.13;2.90;;;-40.00;30.10;;;;;;5036597;28;20167;-71
2022/07/19 10:30:11;;;;;;;3.90;2.75;;;-40.00;29.20;;;;;;5024607;28;20548;-71
2022/07/19 10:32:38;;;;;;;3.47;2.17;;;27.60;62.20;;;;;;5037124;28;20261;-71
2022/07/19 10:35:22;;;;;;;3.38;1.92;;;32.20;64.60;;;;;;5036958;28;20635;-68
2022/07/19 10:38:11;;;;;;;5.60;2.25;;;32.20;63.00;;;;;;5034511;28;20203;-71
2022/07/19 10:40:50;;;;;;;4.30;2.65;;;32.20;60.00;;;;;;5036957;28;20648;-70
2022/07/19 10:43:20;;;;;;;4.65;2.13;;;32.20;57.90;;;;;;5033760;28;20203;-70
2022/07/19 10:46:04;;;;;;;5.53;2.67;;;32.00;59.90;;;;;;5035759;28;20203;-73
2022/07/19 10:48:41;;;;;;;5.38;2.47;;;31.30;59.40;;;;;;5035487;28;20256;-72
2022/07/19 10:51:11;;;;;;;3.22;2.85;;;30.90;58.00;;;;;;5034915;28;20176;-73
2022/07/19 10:53:39;;;;;;;6.30;2.13;;;30.70;57.10;;;;;;5037144;28;20177;-76
2022/07/19 10:56:26;;;;;;;2.55;2.35;;;30.50;58.10;;;;;;5036648;28;20172;-72
2022/07/19 10:58:59;;;;;;;4.32;3.03;;;26.40;54.20;;;;;;5035354;28;20215;-73
2022/07/19 11:01:28;;;;;;;4.72;3.22;;;25.20;52.00;;;;;;5033623;28;20615;-74
2022/07/19 11:04:14;;;;;;;7.00;3.35;;;24.10;51.50;;;;;;5036804;28;20181;-73
2022/07/19 11:06:40;;;;;;;4.30;3.42;;;24.80;51.90;;;;;;5062261;28;20838;-70
2022/07/19 11:09:05;;;;;;;2.67;2.15;;;25.10;51.20;;;;;;5036258;28;20205;-74
2022/07/19 11:11:31;;;;;;;6.30;2.60;;;11.10;45.50;;;;;;5035689;28;20481;-75
2022/07/19 11:13:58;;;;;;;8.90;2.63;;;25.90;51.30;;;;;;5036232;28;20193;-76
2022/07/19 11:16:26;;;;;;;3.70;3.22;;;28.40;52.00;;;;;;5033429;28;20180;-73
2022/07/19 11:18:52;;;;;;;6.53;2.55;;;28.20;51.70;;;;;;5035209;28;20611;-79
2022/07/19 11:21:18;;;;;;;2.97;2.50;;;28.00;50.80;;;;;;5034183;28;20177;-75
2022/07/19 11:23:44;;;;;;;5.10;3.10;;;28.10;50.30;;;;;;5033656;28;20180;-74
2022/07/19 11:26:11;;;;;;;5.10;2.50;;;28.10;48.30;;;;;;5035542;28;20215;-74
2022/07/19 11:28:39;;;;;;;7.03;2.38;;;28.20;47.30;;;;;;5032644;28;20177;-75
2022/07/19 11:31:22;;;;;;;3.90;3.22;;;28.50;49.70;;;;;;5032866;28;20323;-74
2022/07/19 11:33:50;;;;;;;4.43;2.75;;;28.30;48.80;;;;;;5034128;28;20187;-76
2022/07/19 11:36:17;;;;;;;4.95;2.45;;;28.20;49.20;;;;;;5033831;28;20260;-75
2022/07/19 11:38:52;;;;;;;4.50;2.97;;;28.30;47.60;;;;;;5035683;28;20173;-78
2022/07/19 11:41:21;;;;;;;3.17;2.97;;;15.00;41.70;;;;;;5035029;28;20238;-76
2022/07/19 11:44:13;;;;;;;7.50;3.03;;;14.20;43.80;;;;;;5033360;28;20448;-73
2022/07/19 11:46:43;;;;;;;5.38;3.10;;;15.50;41.80;;;;;;5033455;28;20220;-73
2022/07/19 11:49:10;;;;;;;3.17;2.88;;;16.00;40.10;;;;;;5033438;28;20165;-72
2022/07/19 11:51:37;;;;;;;4.95;3.03;;;17.00;39.90;;;;;;5034613;28;20184;-75
2022/07/19 11:54:04;;;;;;;4.15;3.58;;;17.10;39.90;;;;;;5035600;28;20184;-71
2022/07/19 11:56:33;;;;;;;4.88;2.72;;;16.60;39.40;;;;;;5035152;28;20227;-75
2022/07/19 11:59:10;;;;;;;6.63;3.35;;;18.40;40.20;;;;;;5035535;28;20177;-75
2022/07/19 12:01:39;;;;;;;6.22;3.05;;;19.30;40.50;;;;;;5035033;28;20233;-71
2022/07/19 12:04:10;;;;;;;4.85;2.63;;;20.00;36.90;;;;;;5035151;28;20177;-72
2022/07/19 12:06:40;;;;;;;7.85;4.20;;;19.80;37.50;;;;;;5059382;28;20224;-72
2022/07/19 12:09:11;;;;;;;4.88;4.15;;;21.60;37.90;;;;;;5035013;28;20165;-73
2022/07/19 12:11:44;;;;;;;4.38;3.58;;;40.00;48.30;;;;;;5032678;28;20244;-75
2022/07/19 12:14:24;;;;;;;8.02;4.00;;;40.50;45.50;;;;;;5032342;28;20223;-74
2022/07/19 12:17:08;;;;;;;4.43;3.28;;;41.10;44.70;;;;;;5032187;28;20169;-72
2022/07/19 12:19:34;;;;;;;6.22;3.30;;;41.50;48.00;;;;;;5034200;28;20196;-72
2022/07/19 12:21:59;;;;;;;3.53;3.15;;;41.80;48.10;;;;;;5034779;28;20600;-74
2022/07/19 12:24:28;;;;;;;4.38;3.78;;;42.20;44.50;;;;;;5034580;28;20251;-74
2022/07/19 12:26:55;;;;;;;7.40;3.53;;;42.40;46.20;;;;;;5034674;28;20172;-75
2022/07/19 12:29:24;;;;;;;6.57;3.55;;;42.70;43.20;;;;;;5034935;28;20201;-74
2022/07/19 12:31:52;;;;;;;4.53;4.00;;;42.80;41.10;;;;;;5032526;28;20169;-71
2022/07/19 12:34:19;;;;;;;3.60;3.30;;;42.90;41.70;;;;;;5034898;28;20168;-77
2022/07/19 12:36:45;;;;;;;8.38;4.75;;;43.10;40.10;;;;;;5024281;28;20177;-75
2022/07/19 12:39:22;;;;;;;4.45;4.05;;;43.40;42.00;;;;;;5025787;28;20195;-75
2022/07/19 12:42:00;;;;;;;4.15;3.75;;;43.40;41.00;;;;;;5030446;28;20180;-74
2022/07/19 12:44:26;;;;;;;4.05;3.70;;;43.70;40.20;;;;;;5034358;28;20543;-77